Time;durP1;ratioP1;P1;durP2;ratioP2;P2;SDS_P1;SDS_P2;PMS_P1;PMS_P2;Temp;Humidity;BMP_temperature;BMP_pressure;BME280_temperature;BME280_humidity;BME280_pressure;Samples;Min_cycle;Max_cycle;Signal;HPM_P1;HPM_P2
2022/10/10 00:02:04;548616.00;1.83;945.57;8715.00;0.03;15.72;;;;;18.60;1.00;;;;;;2276542;61;1110;-85
2022/10/10 00:04:31;835254.00;2.78;1442.68;24342.00;0.08;42.79;;;;;18.70;1.00;;;;;;2276466;61;1663;-85
2022/10/10 00:06:58;837167.00;2.79;1446.02;23801.00;0.08;41.85;;;;;18.70;1.00;;;;;;2276531;61;1099;-88
2022/10/10 00:09:25;597077.00;1.99;1029.17;0.00;0.00;0.62;;;;;18.70;1.00;;;;;;2276448;61;1144;-85
2022/10/10 00:11:51;801370.00;2.67;1383.51;0.00;0.00;0.62;;;;;18.60;1.00;;;;;;2276476;61;1138;-87
2022/10/10 00:14:20;593862.00;1.98;1023.62;27674.00;0.09;48.56;;;;;18.30;1.00;;;;;;2276454;61;1337;-87
2022/10/10 00:16:46;485891.00;1.62;837.54;0.00;0.00;0.62;;;;;18.40;1.00;;;;;;2276433;61;2014;-86
2022/10/10 00:19:13;567387.00;1.89;977.94;0.00;0.00;0.62;;;;;18.50;1.00;;;;;;2276410;61;1092;-86
2022/10/10 00:21:40;757280.00;2.52;1306.72;87556.00;0.29;152.09;;;;;18.60;1.00;;;;;;2276456;61;1091;-87
2022/10/10 00:24:07;1010248.00;3.37;1750.63;28747.00;0.10;50.41;;;;;18.50;1.00;;;;;;2276399;61;1323;-87
2022/10/10 00:26:34;630983.00;2.10;1087.75;21361.00;0.07;37.63;;;;;18.50;1.00;;;;;;2276330;61;1459;-85
2022/10/10 00:29:01;680463.00;2.27;1173.38;0.00;0.00;0.62;;;;;18.40;1.00;;;;;;2276395;61;1647;-87
2022/10/10 00:31:29;528292.00;1.76;910.55;43989.00;0.15;76.79;;;;;18.20;1.00;;;;;;2276430;61;1028;-87
2022/10/10 00:33:57;749870.00;2.50;1293.83;0.00;0.00;0.62;;;;;18.30;1.00;;;;;;2276396;61;1410;-87
2022/10/10 00:36:24;624651.00;2.08;1076.80;0.00;0.00;0.62;;;;;18.50;1.00;;;;;;2276212;61;1613;-87
2022/10/10 00:38:51;1292488.00;4.31;2258.36;64520.00;0.22;112.29;;;;;18.60;1.00;;;;;;2276248;61;1927;-87
2022/10/10 00:41:18;569852.00;1.90;982.19;26771.00;0.09;46.99;;;;;18.60;1.00;;;;;;2276384;61;1087;-87
2022/10/10 00:44:01;1131748.00;3.77;1967.29;43402.00;0.14;75.77;;;;;18.50;1.00;;;;;;2276336;61;1549;-87
2022/10/10 00:46:29;873577.00;2.91;1509.76;19738.00;0.07;34.82;;;;;18.40;1.00;;;;;;2276416;61;1328;-86
2022/10/10 00:48:56;754626.00;2.52;1302.10;63067.00;0.21;109.78;;;;;18.40;1.00;;;;;;2276299;61;1091;-88
2022/10/10 00:51:23;578107.00;1.93;996.43;56823.00;0.19;98.98;;;;;18.30;1.00;;;;;;2276342;61;1100;-86
2022/10/10 00:53:53;621226.00;2.07;1070.88;0.00;0.00;0.62;;;;;18.50;1.00;;;;;;2276322;61;1380;-88
2022/10/10 00:56:25;920790.00;3.07;1592.66;66338.00;0.22;115.43;;;;;18.50;1.00;;;;;;2276376;61;1106;-87
2022/10/10 00:58:57;794534.00;2.65;1371.59;0.00;0.00;0.62;;;;;18.60;1.00;;;;;;2276373;61;1986;-87
2022/10/10 01:01:24;707881.00;2.36;1220.91;20730.00;0.07;36.53;;;;;18.60;1.00;;;;;;2276349;61;1068;-85
2022/10/10 01:03:53;988957.00;3.30;1712.92;97369.00;0.32;169.03;;;;;18.60;1.00;;;;;;2276351;61;1336;-87
2022/10/10 01:06:20;733410.00;2.44;1265.23;17640.00;0.06;31.18;;;;;18.40;1.00;;;;;;2276334;61;1111;-85
2022/10/10 01:08:47;425055.00;1.42;732.88;0.00;0.00;0.62;;;;;18.30;1.00;;;;;;2276390;61;1119;-88
2022/10/10 01:11:31;449159.00;1.50;774.34;30771.00;0.10;53.92;;;;;18.40;1.00;;;;;;2276322;61;1420;-86
2022/10/10 01:14:13;370180.00;1.23;638.55;0.00;0.00;0.62;;;;;18.40;1.00;;;;;;2276277;61;1470;-86
2022/10/10 01:16:47;253649.00;0.85;438.23;0.00;0.00;0.62;;;;;18.40;1.00;;;;;;2276329;61;1533;-86
2022/10/10 01:19:47;511948.00;1.71;882.40;12026.00;0.04;21.46;;;;;18.30;1.00;;;;;;2276336;61;1927;-88
2022/10/10 01:22:29;93549.00;0.31;162.44;0.00;0.00;0.62;;;;;18.20;1.00;;;;;;2276263;61;1737;-86
2022/10/10 01:25:09;265433.00;0.88;458.49;0.00;0.00;0.62;;;;;18.40;1.00;;;;;;2276253;61;1435;-86
2022/10/10 01:27:42;347108.00;1.16;598.89;0.00;0.00;0.62;;;;;18.40;1.00;;;;;;2276186;61;1050;-83
2022/10/10 01:30:14;201706.00;0.67;348.86;0.00;0.00;0.62;;;;;18.40;1.00;;;;;;2276254;61;1679;-84
2022/10/10 01:32:47;261706.00;0.87;452.08;0.00;0.00;0.62;;;;;18.40;1.00;;;;;;2276299;61;1066;-86
2022/10/10 01:35:41;399182.00;1.33;688.40;0.00;0.00;0.62;;;;;18.20;1.00;;;;;;2276281;61;1406;-87
2022/10/10 01:38:25;158867.00;0.53;275.09;0.00;0.00;0.62;;;;;18.30;1.00;;;;;;2273976;61;2188;-84
2022/10/10 01:40:59;494932.00;1.65;853.10;0.00;0.00;0.62;;;;;18.40;1.00;;;;;;2276229;61;952;-87
2022/10/10 01:43:26;323814.00;1.08;558.85;0.00;0.00;0.62;;;;;18.50;1.00;;;;;;2276073;61;1585;-85
2022/10/10 01:45:55;11809.00;0.04;21.08;0.00;0.00;0.62;;;;;18.50;1.00;;;;;;2276267;61;1138;-88
2022/10/10 01:48:26;257272.00;0.86;444.46;0.00;0.00;0.62;;;;;18.50;1.00;;;;;;2276625;61;1097;-86
2022/10/10 01:51:19;608706.00;2.03;1049.25;58603.00;0.20;102.06;;;;;18.60;1.00;;;;;;2276949;61;1008;-86
2022/10/10 01:53:57;313158.00;1.04;540.54;0.00;0.00;0.62;;;;;18.70;1.00;;;;;;2276463;61;1407;-87
2022/10/10 01:56:33;406137.00;1.35;700.36;0.00;0.00;0.62;;;;;18.70;1.00;;;;;;2276873;61;1768;-86
2022/10/10 01:59:21;422590.00;1.41;728.64;0.00;0.00;0.62;;;;;18.80;1.00;;;;;;2276875;61;1974;-87
2022/10/10 02:01:55;300656.00;1.00;519.05;0.00;0.00;0.62;;;;;18.60;1.00;;;;;;2276924;61;1105;-87
2022/10/10 02:04:35;150125.00;0.50;260.02;0.00;0.00;0.62;;;;;18.60;1.00;;;;;;2276768;61;1609;-86
2022/10/10 02:07:08;500501.00;1.67;862.69;11802.00;0.04;21.07;;;;;18.50;1.00;;;;;;2276933;61;1110;-86
2022/10/10 02:09:38;489049.00;1.63;842.97;0.00;0.00;0.62;;;;;18.50;1.00;;;;;;2276791;61;1075;-86
2022/10/10 02:12:06;602957.00;2.01;1039.33;0.00;0.00;0.62;;;;;18.40;1.00;;;;;;2276772;61;1829;-88
2022/10/10 02:14:40;253780.00;0.85;438.45;0.00;0.00;0.62;;;;;18.30;1.00;;;;;;2276812;61;1371;-86
2022/10/10 02:17:12;397701.00;1.33;685.85;0.00;0.00;0.62;;;;;18.40;1.00;;;;;;2276793;61;1129;-86
2022/10/10 02:19:45;390772.00;1.30;673.94;0.00;0.00;0.62;;;;;18.20;1.00;;;;;;2276843;61;2002;-86
2022/10/10 02:22:14;333800.00;1.11;576.02;11212.00;0.04;20.05;;;;;17.90;1.00;;;;;;2276780;61;1046;-86
2022/10/10 02:24:42;644832.00;2.15;1111.70;162490.00;0.54;281.33;;;;;17.80;1.00;;;;;;2276803;61;1382;-87
2022/10/10 02:27:16;359610.00;1.20;620.38;0.00;0.00;0.62;;;;;18.00;1.00;;;;;;2276743;61;1095;-86
2022/10/10 02:29:46;175415.00;0.58;303.59;0.00;0.00;0.62;;;;;18.10;1.00;;;;;;2276738;61;1092;-86
2022/10/10 02:32:20;406929.00;1.36;701.72;25310.00;0.08;44.46;;;;;18.00;1.00;;;;;;2276837;61;1077;-87
2022/10/10 02:34:53;264899.00;0.88;457.57;0.00;0.00;0.62;;;;;18.00;1.00;;;;;;2276455;61;1428;-87
2022/10/10 02:37:21;332045.00;1.11;573.00;0.00;0.00;0.62;;;;;18.40;1.00;;;;;;2276784;61;1449;-87
2022/10/10 02:39:53;211791.00;0.71;366.22;0.00;0.00;0.62;;;;;18.40;1.00;;;;;;2276777;61;1028;-86
2022/10/10 02:42:22;17274.00;0.06;30.55;0.00;0.00;0.62;;;;;18.20;1.00;;;;;;2276695;61;1128;-87
2022/10/10 02:44:50;0.00;0.00;0.62;0.00;0.00;0.62;;;;;18.20;1.00;;;;;;2276692;61;1260;-87
2022/10/10 02:47:19;65685.00;0.22;114.30;0.00;0.00;0.62;;;;;18.30;1.00;;;;;;2276797;61;930;-86
2022/10/10 02:49:46;83157.00;0.28;144.49;0.00;0.00;0.62;;;;;18.50;1.00;;;;;;2276633;61;1664;-86
2022/10/10 02:52:15;0.00;0.00;0.62;0.00;0.00;0.62;;;;;18.60;1.00;;;;;;2276640;61;972;-87
2022/10/10 02:54:42;136031.00;0.45;235.73;0.00;0.00;0.62;;;;;18.70;1.00;;;;;;2276622;61;1669;-86
2022/10/10 02:57:09;44718.00;0.15;78.05;0.00;0.00;0.62;;;;;18.50;1.00;;;;;;2276781;61;1073;-86
2022/10/10 02:59:36;215625.00;0.72;372.82;0.00;0.00;0.62;;;;;18.50;1.00;;;;;;2276579;61;2023;-87
2022/10/10 03:02:03;366708.00;1.22;632.58;84696.00;0.28;147.15;;;;;18.50;1.00;;;;;;2276691;61;1087;-86
2022/10/10 03:04:31;261044.00;0.87;450.94;0.00;0.00;0.62;;;;;18.40;1.00;;;;;;2276631;61;1394;-88
2022/10/10 03:06:58;384192.00;1.28;662.63;0.00;0.00;0.62;;;;;18.30;1.00;;;;;;2276564;61;1100;-85
2022/10/10 03:09:25;398235.00;1.33;686.77;0.00;0.00;0.62;;;;;18.10;1.00;;;;;;2276540;61;1168;-87
2022/10/10 03:11:52;246977.00;0.82;426.75;0.00;0.00;0.62;;;;;17.80;1.00;;;;;;2276592;61;2202;-85
2022/10/10 03:14:19;146772.00;0.49;254.24;0.00;0.00;0.62;;;;;17.60;1.00;;;;;;2276588;61;1386;-90
2022/10/10 03:16:45;187049.00;0.62;323.63;0.00;0.00;0.62;;;;;17.70;1.00;;;;;;2276423;61;1052;-88
2022/10/10 03:19:12;264147.00;0.88;456.28;0.00;0.00;0.62;;;;;18.00;1.00;;;;;;2276492;61;1922;-87
2022/10/10 03:21:41;136722.00;0.46;236.92;0.00;0.00;0.62;;;;;18.10;1.00;;;;;;2276630;61;925;-87
2022/10/10 03:24:07;400597.00;1.34;690.83;0.00;0.00;0.62;;;;;18.30;1.00;;;;;;2276557;61;1386;-86
2022/10/10 03:26:34;306576.00;1.02;529.22;0.00;0.00;0.62;;;;;18.10;1.00;;;;;;2276577;61;1079;-87
2022/10/10 03:29:02;261629.00;0.87;451.95;0.00;0.00;0.62;;;;;18.20;1.00;;;;;;2276543;61;1000;-88
2022/10/10 03:31:29;133012.00;0.44;230.52;0.00;0.00;0.62;;;;;18.30;1.00;;;;;;2276558;61;1192;-86
2022/10/10 03:33:56;175853.00;0.59;304.35;0.00;0.00;0.62;;;;;18.50;1.00;;;;;;2276506;61;1704;-86
2022/10/10 03:36:23;339641.00;1.13;586.06;0.00;0.00;0.62;;;;;18.30;1.00;;;;;;2276567;61;1135;-85
2022/10/10 03:38:52;117448.00;0.39;203.68;0.00;0.00;0.62;;;;;18.10;1.00;;;;;;2276533;61;1920;-87
2022/10/10 03:41:18;296949.00;0.99;512.68;0.00;0.00;0.62;;;;;17.90;1.00;;;;;;2276526;61;984;-86
2022/10/10 03:43:46;377557.00;1.26;651.23;0.00;0.00;0.62;;;;;18.00;1.00;;;;;;2276599;61;1272;-87
2022/10/10 03:46:13;276209.00;0.92;477.02;0.00;0.00;0.62;;;;;18.10;1.00;;;;;;2276475;61;1032;-86
2022/10/10 03:48:40;280838.00;0.94;484.98;0.00;0.00;0.62;;;;;18.10;1.00;;;;;;2276608;61;1051;-87
2022/10/10 03:51:07;54383.00;0.18;94.77;0.00;0.00;0.62;;;;;18.00;1.00;;;;;;2276481;61;1611;-85
2022/10/10 03:53:34;197817.00;0.66;342.17;0.00;0.00;0.62;;;;;18.00;1.00;;;;;;2276501;61;1417;-87
2022/10/10 03:56:02;123755.00;0.41;214.56;0.00;0.00;0.62;;;;;17.80;1.00;;;;;;2276510;61;995;-85
2022/10/10 03:58:29;286818.00;0.96;495.26;0.00;0.00;0.62;;;;;17.50;1.00;;;;;;2276457;61;2014;-87
2022/10/10 04:00:58;679462.00;2.26;1171.64;5836.00;0.02;10.73;;;;;17.60;1.00;;;;;;2276530;61;1022;-87
2022/10/10 04:03:25;261901.00;0.87;452.42;0.00;0.00;0.62;;;;;17.50;1.00;;;;;;2276441;61;1304;-86
2022/10/10 04:05:53;388542.00;1.30;670.11;0.00;0.00;0.62;;;;;17.50;1.00;;;;;;2276510;61;1015;-86
2022/10/10 04:08:20;365649.00;1.22;630.76;0.00;0.00;0.62;;;;;17.70;1.00;;;;;;2276473;61;1069;-86
2022/10/10 04:10:48;229403.00;0.76;396.52;0.00;0.00;0.62;;;;;17.70;1.00;;;;;;2276295;61;1208;-87
2022/10/10 04:13:16;283915.00;0.95;490.27;0.00;0.00;0.62;;;;;17.70;1.00;;;;;;2276391;61;1538;-87
2022/10/10 04:15:43;284731.00;0.95;491.67;0.00;0.00;0.62;;;;;17.60;1.00;;;;;;2276452;61;1012;-86
2022/10/10 04:18:11;736164.00;2.45;1270.01;18672.00;0.06;32.97;;;;;17.70;1.00;;;;;;2276451;61;1990;-86
2022/10/10 04:20:38;212359.00;0.71;367.20;0.00;0.00;0.62;;;;;17.70;1.00;;;;;;2276335;61;1008;-85
2022/10/10 04:23:05;277438.00;0.92;479.13;0.00;0.00;0.62;;;;;18.00;1.00;;;;;;2276332;61;1528;-87
2022/10/10 04:25:33;306955.00;1.02;529.88;0.00;0.00;0.62;;;;;17.60;1.00;;;;;;2276344;61;1512;-85
2022/10/10 04:28:00;335393.00;1.12;578.76;0.00;0.00;0.62;;;;;17.50;1.00;;;;;;2276260;61;1055;-87
2022/10/10 04:30:32;326996.00;1.09;564.32;3394.00;0.01;6.50;;;;;17.70;1.00;;;;;;2276334;61;1260;-84
2022/10/10 04:33:00;298091.00;0.99;514.64;42824.00;0.14;74.77;;;;;17.70;1.00;;;;;;2276352;61;1025;-86
2022/10/10 04:35:27;417435.00;1.39;719.78;0.00;0.00;0.62;;;;;17.40;1.00;;;;;;2276135;61;1646;-86
2022/10/10 04:37:54;463423.00;1.54;798.87;48192.00;0.16;84.06;;;;;16.80;1.00;;;;;;2276336;61;1029;-86
2022/10/10 04:40:21;669199.00;2.23;1153.87;0.00;0.00;0.62;;;;;16.80;1.00;;;;;;2276396;61;2013;-84
2022/10/10 04:42:48;333843.00;1.11;576.09;0.00;0.00;0.62;;;;;16.80;1.00;;;;;;2276366;61;1035;-86
2022/10/10 04:45:15;405452.00;1.35;699.18;0.00;0.00;0.62;;;;;17.00;1.00;;;;;;2276321;61;1341;-88
2022/10/10 04:47:44;442260.00;1.47;762.47;0.00;0.00;0.62;;;;;17.00;1.00;;;;;;2276333;61;1664;-88
2022/10/10 04:50:11;367884.00;1.23;634.60;24335.00;0.08;42.78;;;;;17.20;1.00;;;;;;2276299;61;1651;-87
2022/10/10 04:52:38;525174.00;1.75;905.18;0.00;0.00;0.62;;;;;17.00;1.00;;;;;;2276299;61;1642;-87
2022/10/10 04:55:05;225455.00;0.75;389.73;0.00;0.00;0.62;;;;;17.10;1.00;;;;;;2276271;61;1377;-87
2022/10/10 04:57:32;530922.00;1.77;915.08;0.00;0.00;0.62;;;;;17.00;1.00;;;;;;2276345;61;1107;-88
2022/10/10 04:59:59;308491.00;1.03;532.52;0.00;0.00;0.62;;;;;17.10;1.00;;;;;;2276262;61;2016;-88
2022/10/10 05:02:26;1752577.00;5.84;3128.04;534511.00;1.78;921.26;;;;;16.90;1.00;;;;;;2276281;61;1508;-87
2022/10/10 05:04:55;457485.00;1.52;788.66;0.00;0.00;0.62;;;;;17.00;1.00;;;;;;2276227;61;1295;-87
2022/10/10 05:07:22;417749.00;1.39;720.32;0.00;0.00;0.62;;;;;17.00;1.00;;;;;;2276352;61;937;-87
2022/10/10 05:09:50;335982.00;1.12;579.77;36012.00;0.12;62.99;;;;;17.00;1.00;;;;;;2276234;61;1436;-86
2022/10/10 05:12:17;270477.00;0.90;467.16;0.00;0.00;0.62;;;;;17.10;1.00;;;;;;2276299;61;1088;-87
2022/10/10 05:14:43;290276.00;0.97;501.20;0.00;0.00;0.62;;;;;16.70;1.00;;;;;;2276258;61;1375;-89
2022/10/10 05:17:10;323096.00;1.08;557.62;0.00;0.00;0.62;;;;;16.80;1.40;;;;;;2276217;61;1007;-86
2022/10/10 05:19:37;478271.00;1.59;824.42;68632.00;0.23;119.40;;;;;17.10;1.80;;;;;;2276143;61;2000;-86
2022/10/10 05:22:06;298259.00;0.99;514.93;23457.00;0.08;41.26;;;;;17.30;1.00;;;;;;2276270;61;1037;-86
2022/10/10 05:24:33;342887.00;1.14;591.64;0.00;0.00;0.62;;;;;17.10;1.00;;;;;;2276847;61;1297;-86
2022/10/10 05:27:00;363077.00;1.21;626.34;0.00;0.00;0.62;;;;;17.10;1.00;;;;;;2276823;61;1242;-87
2022/10/10 05:29:27;488002.00;1.63;841.17;22999.00;0.08;40.46;;;;;16.80;1.00;;;;;;2276942;61;1009;-87
2022/10/10 05:31:54;186157.00;0.62;322.09;0.00;0.00;0.62;;;;;16.40;1.30;;;;;;2276808;61;1118;-89
2022/10/10 05:34:21;448085.00;1.49;772.49;8629.00;0.03;15.57;;;;;16.10;3.00;;;;;;2276874;61;1370;-87
2022/10/10 05:36:48;325129.00;1.08;561.11;0.00;0.00;0.62;;;;;16.20;2.20;;;;;;2276964;61;923;-88
2022/10/10 05:39:16;258781.00;0.86;447.05;0.00;0.00;0.62;;;;;16.30;2.90;;;;;;2276911;61;1912;-87
2022/10/10 05:41:43;529542.00;1.77;912.70;0.00;0.00;0.62;;;;;16.40;2.80;;;;;;2276882;61;1588;-87
2022/10/10 05:44:10;355551.00;1.19;613.40;0.00;0.00;0.62;;;;;16.70;1.30;;;;;;2276897;61;1385;-89
2022/10/10 05:46:37;314415.00;1.05;542.70;0.00;0.00;0.62;;;;;16.70;2.00;;;;;;2276861;61;1075;-87
2022/10/10 05:49:04;337447.00;1.12;582.29;0.00;0.00;0.62;;;;;16.70;1.30;;;;;;2276674;61;1032;-87
2022/10/10 05:51:31;472965.00;1.58;815.29;0.00;0.00;0.62;;;;;16.70;2.10;;;;;;2276786;61;1064;-87
2022/10/10 05:53:59;591357.00;1.97;1019.30;81455.00;0.27;141.55;;;;;17.10;2.90;;;;;;2276858;61;1610;-86
2022/10/10 05:56:27;227887.00;0.76;393.91;0.00;0.00;0.62;;;;;17.20;1.50;;;;;;2276893;61;1061;-87
2022/10/10 05:58:54;433223.00;1.44;746.93;0.00;0.00;0.62;;;;;17.40;1.00;;;;;;2276853;61;1911;-86
2022/10/10 06:01:21;301646.00;1.01;520.75;0.00;0.00;0.62;;;;;17.00;1.00;;;;;;2276870;61;1023;-85
2022/10/10 06:03:51;458925.00;1.53;791.14;30473.00;0.10;53.40;;;;;16.80;1.10;;;;;;2276788;61;1382;-86
2022/10/10 06:06:19;422590.00;1.41;728.64;0.00;0.00;0.62;;;;;16.70;1.70;;;;;;2276885;61;1077;-87
2022/10/10 06:08:46;351570.00;1.17;606.56;0.00;0.00;0.62;;;;;16.80;1.40;;;;;;2276785;61;1627;-85
2022/10/10 06:11:14;410370.00;1.37;707.63;30117.00;0.10;52.79;;;;;16.70;1.80;;;;;;2276820;61;1697;-87
2022/10/10 06:13:43;144199.00;0.48;249.81;0.00;0.00;0.62;;;;;16.70;1.40;;;;;;2276829;61;1395;-86
2022/10/10 06:16:10;468279.00;1.56;807.23;46710.00;0.16;81.50;;;;;16.40;1.80;;;;;;2276762;61;1513;-88
2022/10/10 06:18:37;363695.00;1.21;627.40;0.00;0.00;0.62;;;;;16.30;2.50;;;;;;2276722;61;1911;-87
2022/10/10 06:21:07;207776.00;0.69;359.31;0.00;0.00;0.62;;;;;16.10;3.80;;;;;;2276814;61;1099;-87
2022/10/10 06:23:34;299038.00;1.00;516.27;57338.00;0.19;99.87;;;;;16.00;4.20;;;;;;2276818;61;1406;-88
2022/10/10 06:26:01;398794.00;1.33;687.73;0.00;0.00;0.62;;;;;16.20;3.40;;;;;;2276705;61;1701;-88
2022/10/10 06:28:28;173955.00;0.58;301.08;0.00;0.00;0.62;;;;;16.50;3.40;;;;;;2276825;61;1007;-88
2022/10/10 06:31:00;215172.00;0.72;372.04;0.00;0.00;0.62;;;;;16.70;2.40;;;;;;2276724;61;1614;-86
2022/10/10 06:33:27;330751.00;1.10;570.78;0.00;0.00;0.62;;;;;17.10;1.70;;;;;;2276552;61;1313;-86
2022/10/10 06:35:54;443774.00;1.48;765.07;4573.00;0.02;8.55;;;;;17.20;1.80;;;;;;2276647;61;965;-86
2022/10/10 06:38:21;739260.00;2.46;1275.39;172627.00;0.58;298.79;;;;;17.30;1.00;;;;;;2276783;61;1017;-88
2022/10/10 06:40:48;355946.00;1.19;614.08;0.00;0.00;0.62;;;;;17.60;1.20;;;;;;2276620;61;2012;-86
2022/10/10 06:43:17;318132.00;1.06;549.09;0.00;0.00;0.62;;;;;17.80;1.00;;;;;;2276683;61;1360;-85
2022/10/10 06:45:46;470841.00;1.57;811.64;29811.00;0.10;52.26;;;;;18.00;1.00;;;;;;2276668;61;1568;-87
2022/10/10 06:48:15;206501.00;0.69;357.11;0.00;0.00;0.62;;;;;18.20;1.00;;;;;;2276561;61;1031;-86
2022/10/10 06:50:43;361288.00;1.20;623.26;0.00;0.00;0.62;;;;;18.40;1.00;;;;;;2276602;61;1043;-86
2022/10/10 06:53:10;228195.00;0.76;394.44;0.00;0.00;0.62;;;;;18.40;1.00;;;;;;2276586;61;1370;-88
2022/10/10 06:55:37;230968.00;0.77;399.21;0.00;0.00;0.62;;;;;18.70;1.00;;;;;;2276611;61;1057;-85
2022/10/10 06:58:04;552165.00;1.84;951.69;0.00;0.00;0.62;;;;;18.80;1.00;;;;;;2276576;61;1553;-85
2022/10/10 07:00:31;394307.00;1.31;680.02;41701.00;0.14;72.83;;;;;19.10;1.00;;;;;;2276608;61;1990;-85
2022/10/10 07:02:58;354467.00;1.18;611.54;40660.00;0.14;71.03;;;;;19.00;1.00;;;;;;2276665;61;1128;-87
2022/10/10 07:05:26;413021.00;1.38;712.19;0.00;0.00;0.62;;;;;19.20;1.00;;;;;;2276390;61;1335;-86
2022/10/10 07:07:53;139713.00;0.47;242.08;0.00;0.00;0.62;;;;;19.20;1.00;;;;;;2276629;61;1106;-86
2022/10/10 07:10:20;461415.00;1.54;795.42;0.00;0.00;0.62;;;;;18.80;1.00;;;;;;2276521;61;1135;-87
2022/10/10 07:12:47;753256.00;2.51;1299.72;0.00;0.00;0.62;;;;;19.00;1.00;;;;;;2276632;61;1070;-87
2022/10/10 07:15:15;418650.00;1.40;721.87;0.00;0.00;0.62;;;;;18.90;1.00;;;;;;2276607;61;1392;-87
2022/10/10 07:17:43;396084.00;1.32;683.07;7462.00;0.02;13.55;;;;;18.80;1.00;;;;;;2276594;61;1017;-85
2022/10/10 07:20:10;521933.00;1.74;899.59;0.00;0.00;0.62;;;;;18.90;1.00;;;;;;2276582;61;2014;-87
2022/10/10 07:22:39;275072.00;0.92;475.06;0.00;0.00;0.62;;;;;18.90;1.00;;;;;;2276516;61;1740;-87
2022/10/10 07:25:06;521200.00;1.74;898.33;24550.00;0.08;43.15;;;;;18.80;1.00;;;;;;2276599;61;1394;-85
2022/10/10 07:27:33;742639.00;2.48;1281.26;84182.00;0.28;146.26;;;;;18.90;1.00;;;;;;2276422;61;1496;-88
2022/10/10 07:30:00;269768.00;0.90;465.94;0.00;0.00;0.62;;;;;18.90;1.00;;;;;;2276492;61;1423;-87
2022/10/10 07:32:27;345501.00;1.15;596.13;0.00;0.00;0.62;;;;;19.10;1.00;;;;;;2276518;61;1548;-84
2022/10/10 07:34:57;284517.00;0.95;491.30;95130.00;0.32;165.16;;;;;19.10;1.00;;;;;;2276395;61;1411;-85
2022/10/10 07:37:24;237027.00;0.79;409.64;0.00;0.00;0.62;;;;;18.90;1.00;;;;;;2276576;61;1582;-87
2022/10/10 07:39:53;286939.00;0.96;495.47;102115.00;0.34;177.22;;;;;18.70;1.00;;;;;;2276366;61;1917;-85
2022/10/10 07:42:20;120046320.00;400.15;70081160.00;41946.00;0.14;73.26;;;;;18.80;1.00;;;;;;2276628;61;1025;-87
2022/10/10 07:44:48;443323.00;1.48;764.30;52835.00;0.18;92.09;;;;;19.10;1.00;;;;;;2276310;61;1495;-88
2022/10/10 07:47:15;358497.00;1.19;618.47;0.00;0.00;0.62;;;;;19.10;1.00;;;;;;2276439;61;1139;-87
2022/10/10 07:49:42;482895.00;1.61;832.38;0.00;0.00;0.62;;;;;19.10;1.00;;;;;;2276506;61;1673;-86
2022/10/10 07:52:10;281839.00;0.94;486.70;0.00;0.00;0.62;;;;;19.00;1.00;;;;;;2276507;61;1507;-87
2022/10/10 07:54:37;302490.00;1.01;522.20;0.00;0.00;0.62;;;;;19.20;1.00;;;;;;2276544;61;1262;-88
2022/10/10 07:57:05;345254.00;1.15;595.70;0.00;0.00;0.62;;;;;19.40;1.00;;;;;;2276428;61;1606;-85
2022/10/10 07:59:32;315929.00;1.05;545.30;0.00;0.00;0.62;;;;;19.40;1.00;;;;;;2276454;61;2004;-87
2022/10/10 08:01:59;273035.00;0.91;471.56;0.00;0.00;0.62;;;;;19.30;1.00;;;;;;2276524;61;1098;-86
2022/10/10 08:04:26;359824.00;1.20;620.75;0.00;0.00;0.62;;;;;19.40;1.00;;;;;;2276516;61;1270;-86
2022/10/10 08:06:53;458589.00;1.53;790.56;47004.00;0.16;82.00;;;;;19.60;1.00;;;;;;2276475;61;1563;-86
2022/10/10 08:09:20;81043.00;0.27;140.84;0.00;0.00;0.62;;;;;19.70;1.00;;;;;;2276477;61;1120;-87
2022/10/10 08:11:47;206701.00;0.69;357.46;0.00;0.00;0.62;;;;;19.60;1.00;;;;;;2276483;61;1094;-87
2022/10/10 08:14:15;330073.00;1.10;569.61;0.00;0.00;0.62;;;;;19.70;1.00;;;;;;2276332;61;1386;-86
2022/10/10 08:16:42;350345.00;1.17;604.45;0.00;0.00;0.62;;;;;20.00;1.00;;;;;;2276445;61;1116;-88
2022/10/10 08:19:09;525131.00;1.75;905.10;30844.00;0.10;54.04;;;;;19.90;1.00;;;;;;2276455;61;1034;-87
2022/10/10 08:21:36;685291.00;2.28;1181.74;127513.00;0.43;221.04;;;;;20.00;1.00;;;;;;2276458;61;1103;-87
2022/10/10 08:24:03;261337.00;0.87;451.45;0.00;0.00;0.62;;;;;20.00;1.00;;;;;;2276415;61;1269;-87
2022/10/10 08:26:30;297834.00;0.99;514.20;0.00;0.00;0.62;;;;;20.00;1.00;;;;;;2276377;61;1177;-86
2022/10/10 08:28:57;296679.00;0.99;512.21;0.00;0.00;0.62;;;;;20.20;1.00;;;;;;2276400;61;1259;-87
2022/10/10 08:31:26;662076.00;2.21;1141.53;61118.00;0.20;106.41;;;;;20.20;1.00;;;;;;2276381;61;1066;-86
2022/10/10 08:33:56;362384.00;1.21;625.15;0.00;0.00;0.62;;;;;20.20;1.00;;;;;;2276230;61;1349;-86
2022/10/10 08:36:26;515075.00;1.72;887.78;44353.00;0.15;77.42;;;;;20.20;1.00;;;;;;2276304;61;1091;-86
2022/10/10 08:38:56;534916.00;1.78;921.96;51127.00;0.17;89.14;;;;;20.00;1.00;;;;;;2276177;61;1357;-87
2022/10/10 08:41:38;450739.00;1.50;777.05;39112.00;0.13;68.35;;;;;20.20;1.00;;;;;;2276095;61;1926;-88
2022/10/10 08:44:14;268243.00;0.89;463.32;0.00;0.00;0.62;;;;;20.20;1.00;;;;;;2276096;61;1585;-87
2022/10/10 08:46:47;253927.00;0.85;438.70;52763.00;0.18;91.96;;;;;20.20;1.00;;;;;;2276272;61;999;-88
2022/10/10 08:49:24;438029.00;1.46;755.19;17418.00;0.06;30.80;;;;;20.30;1.00;;;;;;2276319;61;1743;-88
2022/10/10 08:51:58;166223.00;0.55;287.76;0.00;0.00;0.62;;;;;20.50;1.00;;;;;;2276437;61;1014;-88
2022/10/10 08:54:29;349207.00;1.16;602.50;0.00;0.00;0.62;;;;;20.20;1.00;;;;;;2276277;61;1405;-88
2022/10/10 08:57:00;368835.00;1.23;636.23;63544.00;0.21;110.60;;;;;20.20;1.00;;;;;;2276562;61;956;-88
2022/10/10 08:59:33;306770.00;1.02;529.56;0.00;0.00;0.62;;;;;20.40;1.00;;;;;;2277026;61;1992;-87
2022/10/10 09:02:32;468636.00;1.56;807.84;0.00;0.00;0.62;;;;;20.50;1.00;;;;;;2277077;61;944;-85
2022/10/10 09:04:59;716644.00;2.39;1236.11;42934.00;0.14;74.96;;;;;20.40;1.00;;;;;;2289378;40;3584;-87
2022/10/10 09:07:49;305103.00;1.02;526.69;9351.00;0.03;16.82;;;;;20.60;1.00;;;;;;2276847;61;1588;-86
2022/10/10 09:10:26;182646.00;0.61;316.05;0.00;0.00;0.62;;;;;20.30;1.00;;;;;;2277011;61;1096;-88
2022/10/10 09:13:01;433960.00;1.45;748.20;0.00;0.00;0.62;;;;;20.40;1.00;;;;;;2276600;61;1626;-86
2022/10/10 09:15:36;436894.00;1.46;753.24;0.00;0.00;0.62;;;;;20.60;1.00;;;;;;2276668;61;1546;-87
2022/10/10 09:18:16;356026.00;1.19;614.22;0.00;0.00;0.62;;;;;20.60;1.00;;;;;;2276502;61;1467;-87
2022/10/10 09:20:53;403228.00;1.34;695.35;0.00;0.00;0.62;;;;;20.80;1.00;;;;;;2276963;61;2020;-86
2022/10/10 09:23:25;368422.00;1.23;635.52;0.00;0.00;0.62;;;;;21.00;1.00;;;;;;2276856;61;1560;-86
2022/10/10 09:26:00;426168.00;1.42;734.80;0.00;0.00;0.62;;;;;20.90;1.00;;;;;;2276913;61;1120;-87
2022/10/10 09:28:37;916236.00;3.05;1584.65;181316.00;0.60;313.76;;;;;21.10;1.00;;;;;;2276930;61;1172;-86
2022/10/10 09:31:14;396942.00;1.32;684.55;0.00;0.00;0.62;;;;;21.30;1.00;;;;;;2276951;61;2104;-86
2022/10/10 09:33:51;944948.00;3.15;1635.20;224533.00;0.75;388.14;;;;;21.40;1.00;;;;;;2276835;61;1589;-88
2022/10/10 09:36:23;1330028.00;4.43;2327.17;370205.00;1.23;638.59;;;;;21.20;1.00;;;;;;2276859;61;1173;-88
2022/10/10 09:38:53;538382.00;1.79;927.93;70020.00;0.23;121.79;;;;;21.10;1.00;;;;;;2276869;61;1033;-89
2022/10/10 09:41:26;620821.00;2.07;1070.18;106352.00;0.35;184.53;;;;;21.10;1.00;;;;;;2276837;61;1927;-88
2022/10/10 09:44:00;513713.00;1.71;885.44;162818.00;0.54;281.89;;;;;20.90;1.00;;;;;;2276871;61;1505;-87
2022/10/10 09:46:27;526993.00;1.76;908.31;48974.00;0.16;85.41;;;;;21.10;1.00;;;;;;2276905;61;1079;-87
2022/10/10 09:48:57;661976.00;2.21;1141.36;80221.00;0.27;139.42;;;;;21.10;1.00;;;;;;2276904;61;996;-88
2022/10/10 09:51:24;624022.00;2.08;1075.72;129215.00;0.43;223.98;;;;;21.10;1.00;;;;;;2276843;61;1532;-87
2022/10/10 09:53:54;566201.00;1.89;975.89;51480.00;0.17;89.75;;;;;21.20;1.00;;;;;;2276947;61;1300;-86
2022/10/10 09:56:25;294017.00;0.98;507.64;0.00;0.00;0.62;;;;;21.20;1.00;;;;;;2276907;61;1132;-88
2022/10/10 09:58:54;484011.00;1.61;834.30;25970.00;0.09;45.61;;;;;21.30;1.00;;;;;;2276835;61;1382;-87